Time,TemperatureF,DewpointF,PressureIn,WindDirection,WindDirectionDegrees,WindSpeedMPH,WindSpeedGustMPH,Humidity,HourlyPrecipIn,Conditions,Clouds,dailyrainin,SoftwareType,DateUTC
2013-08-20 00:13:00,66.0,64.0,30.09,SW,222,0.0,0.0,94,0.00,,,0.90,,2013-08-20 04:13:00,
2013-08-20 00:23:00,66.0,64.0,30.09,SW,222,0.0,0.0,94,0.00,,,0.90,,2013-08-20 04:23:00,
2013-08-20 00:33:00,66.0,64.0,30.09,SW,222,0.0,0.0,94,0.00,,,0.90,,2013-08-20 04:33:00,
2013-08-20 01:12:00,66.0,65.0,30.09,SW,222,0.0,0.0,95,0.00,,,0.88,,2013-08-20 05:12:00,
2013-08-20 01:22:00,66.0,65.0,30.10,SW,222,0.0,0.0,95,0.00,,,0.87,,2013-08-20 05:22:00,
2013-08-20 01:52:00,66.0,65.0,30.10,SW,222,0.0,0.0,95,0.00,,,0.86,,2013-08-20 05:52:00,
2013-08-20 02:11:00,65.0,64.0,30.09,SW,222,0.0,0.0,95,0.00,,,0.86,,2013-08-20 06:11:00,
2013-08-20 02:22:00,65.0,64.0,30.09,SW,222,0.0,0.0,95,0.00,,,0.86,,2013-08-20 06:22:00,
2013-08-20 02:42:00,65.0,64.0,30.09,SW,222,0.0,0.0,95,0.00,,,0.84,,2013-08-20 06:42:00,
2013-08-20 02:52:00,65.0,64.0,30.08,SW,222,0.0,0.0,95,0.00,,,0.83,,2013-08-20 06:52:00,
2013-08-20 03:22:00,65.0,64.0,30.07,SW,222,0.0,0.0,95,0.00,,,0.80,,2013-08-20 07:22:00,
2013-08-20 03:52:00,65.0,64.0,30.07,SW,222,0.0,0.0,95,0.00,,,0.79,,2013-08-20 07:52:00,
2013-08-20 04:11:00,65.0,64.0,30.07,SW,222,0.0,0.0,95,0.00,,,0.69,,2013-08-20 08:11:00,
2013-08-20 04:22:00,65.0,64.0,30.06,SW,222,0.0,0.0,95,0.00,,,0.63,,2013-08-20 08:22:00,
2013-08-20 04:52:00,64.0,63.0,30.07,SW,222,0.0,0.0,95,0.00,,,0.54,,2013-08-20 08:52:00,
2013-08-20 05:01:00,64.0,63.0,30.07,SW,222,0.0,0.0,95,0.00,,,0.54,,2013-08-20 09:01:00,
2013-08-20 05:11:00,64.0,63.0,30.07,SW,222,0.0,0.0,95,0.00,,,0.54,,2013-08-20 09:11:00,
2013-08-20 05:21:00,65.0,64.0,30.07,SW,222,0.0,0.0,95,0.00,,,0.50,,2013-08-20 09:21:00,
2013-08-20 05:42:00,64.0,63.0,30.07,SW,222,0.0,0.0,95,0.00,,,0.48,,2013-08-20 09:42:00,
2013-08-20 05:53:00,64.0,63.0,30.07,SW,222,0.0,0.0,95,0.00,,,0.48,,2013-08-20 09:53:00,
2013-08-20 06:12:00,64.0,63.0,30.08,SW,222,0.0,0.0,95,0.00,,,0.42,,2013-08-20 10:12:00,
2013-08-20 06:23:00,64.0,63.0,30.08,SW,222,0.0,0.0,95,0.00,,,0.42,,2013-08-20 10:23:00,
2013-08-20 06:52:00,65.0,64.0,30.09,SW,222,0.0,0.0,95,0.00,,,0.36,,2013-08-20 10:52:00,
2013-08-20 07:11:00,64.0,63.0,30.09,SW,222,0.0,0.0,95,0.00,,,0.32,,2013-08-20 11:11:00,
2013-08-20 07:22:00,64.0,63.0,30.09,SW,222,0.0,0.0,95,0.00,,,0.32,,2013-08-20 11:22:00,
2013-08-20 07:42:00,64.0,63.0,30.10,SW,222,0.0,0.0,95,0.00,,,0.26,,2013-08-20 11:42:00,
2013-08-20 07:52:00,64.0,63.0,30.10,SW,222,0.0,0.0,95,0.00,,,0.25,,2013-08-20 11:52:00,
2013-08-20 08:12:00,64.0,63.0,30.10,SW,222,0.0,0.0,95,0.00,,,0.24,,2013-08-20 12:12:00,
2013-08-20 08:21:00,65.0,64.0,30.10,SW,222,0.0,0.0,95,0.00,,,0.24,,2013-08-20 12:21:00,
2013-08-20 08:52:00,64.0,63.0,30.11,SW,222,0.0,0.0,95,0.00,,,0.24,,2013-08-20 12:52:00,
2013-08-20 09:11:00,65.0,64.0,30.11,SW,222,0.0,0.0,95,0.00,,,0.24,,2013-08-20 13:11:00,
2013-08-20 09:22:00,65.0,64.0,30.11,SW,222,0.0,0.0,95,0.00,,,0.24,,2013-08-20 13:22:00,
2013-08-20 09:52:00,65.0,64.0,30.12,SW,222,0.0,0.0,95,0.00,,,0.24,,2013-08-20 13:52:00,
2013-08-20 10:11:00,65.0,64.0,30.13,SW,222,0.0,0.0,95,0.00,,,0.24,,2013-08-20 14:11:00,
2013-08-20 10:22:00,65.0,64.0,30.13,SW,222,0.0,0.0,95,0.00,,,0.24,,2013-08-20 14:22:00,
2013-08-20 10:32:00,65.0,64.0,30.13,SW,222,0.0,0.0,95,0.00,,,0.24,,2013-08-20 14:32:00,
2013-08-20 10:52:00,66.0,64.0,30.14,SSW,210,0.0,0.0,94,0.00,,,0.24,,2013-08-20 14:52:00,
2013-08-20 11:11:00,67.0,65.0,30.14,ESE,121,0.0,0.0,93,0.00,,,0.24,,2013-08-20 15:11:00,
2013-08-20 11:22:00,67.0,65.0,30.14,ESE,121,0.0,0.0,93,0.00,,,0.24,,2013-08-20 15:22:00,
2013-08-20 11:54:00,69.0,66.0,30.15,ESE,103,0.0,0.0,89,0.00,,,0.24,,2013-08-20 15:54:00,
2013-08-20 12:15:00,69.0,66.0,30.14,ESE,103,0.0,0.0,91,0.00,,,0.24,,2013-08-20 16:15:00,
2013-08-20 12:30:00,-999.0,-99.9,30.14,ESE,105,0.0,0.0,90,0.00,,,0.24,,2013-08-20 16:30:00,
2013-08-20 12:42:00,71.0,67.0,30.14,ESE,111,0.0,0.0,87,0.00,,,0.23,,2013-08-20 16:42:00,
2013-08-20 12:52:00,71.0,67.0,30.14,ESE,111,0.0,0.0,87,0.00,,,0.23,,2013-08-20 16:52:00,
2013-08-20 13:12:00,72.0,68.0,30.14,South,170,0.0,0.0,87,0.00,,,0.23,,2013-08-20 17:12:00,
2013-08-20 13:24:00,72.0,67.0,30.14,SE,130,0.0,0.0,84,0.00,,,0.23,,2013-08-20 17:24:00,
2013-08-20 13:52:00,73.0,68.0,30.13,ESE,104,0.0,0.0,83,0.00,,,0.23,,2013-08-20 17:52:00,
2013-08-20 14:02:00,73.0,68.0,30.13,ESE,104,0.0,0.0,83,0.00,,,0.23,,2013-08-20 18:02:00,
2013-08-20 14:12:00,73.0,68.0,30.13,ESE,104,0.0,0.0,83,0.00,,,0.23,,2013-08-20 18:12:00,
2013-08-20 14:22:00,73.0,68.0,30.13,ESE,104,0.0,0.0,83,0.00,,,0.23,,2013-08-20 18:22:00,
2013-08-20 14:52:00,72.0,66.0,30.12,SW,219,0.0,0.0,81,0.00,,,0.21,,2013-08-20 18:52:00,
2013-08-20 15:11:00,71.0,67.0,30.11,SSW,208,0.0,0.0,86,0.00,,,0.21,,2013-08-20 19:11:00,
2013-08-20 15:22:00,73.0,68.0,30.11,SSW,198,0.0,0.0,84,0.00,,,0.20,,2013-08-20 19:22:00,
2013-08-20 15:42:00,74.0,70.0,30.10,SE,125,0.0,0.0,86,0.00,,,0.19,,2013-08-20 19:42:00,
2013-08-20 15:52:00,74.0,70.0,30.10,SE,125,0.0,0.0,86,0.00,,,0.19,,2013-08-20 19:52:00,
2013-08-20 16:12:00,73.0,69.0,30.08,SSE,165,0.0,0.0,86,0.00,,,0.14,,2013-08-20 20:12:00,
2013-08-20 16:22:00,73.0,69.0,30.08,SSE,165,0.0,0.0,88,0.00,,,0.13,,2013-08-20 20:22:00,
2013-08-20 16:52:00,73.0,68.0,30.07,SSE,168,0.0,0.0,85,0.00,,,0.13,,2013-08-20 20:52:00,
2013-08-20 17:11:00,75.0,68.0,30.07,ESE,118,0.0,0.0,80,0.00,,,0.13,,2013-08-20 21:11:00,
2013-08-20 17:22:00,74.0,69.0,30.06,South,175,0.0,0.0,85,0.00,,,0.13,,2013-08-20 21:22:00,
2013-08-20 17:55:00,74.0,70.0,30.06,South,169,0.0,0.0,86,0.00,,,0.13,,2013-08-20 21:55:00,
2013-08-20 18:24:00,72.0,68.0,30.06,SSW,198,0.0,0.0,86,0.00,,,0.13,,2013-08-20 22:24:00,
2013-08-20 18:33:00,72.0,68.0,30.06,SSW,198,0.0,0.0,86,0.00,,,0.13,,2013-08-20 22:33:00,
2013-08-20 18:53:00,72.0,68.0,30.06,SSW,198,0.0,0.0,88,0.00,,,0.03,,2013-08-20 22:53:00,
2013-08-20 19:12:00,72.0,67.0,30.06,SSW,198,0.0,0.0,85,0.00,,,0.00,,2013-08-20 23:12:00,
2013-08-20 19:22:00,72.0,67.0,30.06,SSW,198,0.0,0.0,85,0.00,,,0.00,,2013-08-20 23:22:00,
2013-08-20 19:53:00,71.0,67.0,30.08,SSW,198,0.0,0.0,88,0.01,,,0.01,,2013-08-20 23:53:00,
2013-08-20 20:12:00,71.0,68.0,30.08,SSW,198,0.0,0.0,89,0.01,,,0.01,,2013-08-21 00:12:00,
2013-08-20 20:23:00,71.0,68.0,30.09,SSW,198,0.0,0.0,90,0.00,,,0.01,,2013-08-21 00:23:00,
2013-08-20 20:42:00,70.0,67.0,30.10,SSW,198,0.0,0.0,91,0.00,,,0.01,,2013-08-21 00:42:00,
2013-08-20 20:52:00,70.0,67.0,30.10,SSW,198,0.0,0.0,91,0.00,,,0.01,,2013-08-21 00:52:00,
2013-08-20 21:11:00,70.0,67.0,30.10,SSW,198,0.0,0.0,90,0.00,,,0.01,,2013-08-21 01:11:00,
2013-08-20 21:22:00,70.0,67.0,30.10,SSW,198,0.0,0.0,89,0.00,,,0.01,,2013-08-21 01:22:00,
2013-08-20 21:42:00,70.0,67.0,30.10,SSW,198,0.0,0.0,90,0.00,,,0.01,,2013-08-21 01:42:00,
2013-08-20 21:52:00,70.0,67.0,30.10,SSW,198,0.0,0.0,90,0.00,,,0.01,,2013-08-21 01:52:00,
2013-08-20 22:12:00,69.0,66.0,30.11,SSW,198,0.0,0.0,91,0.00,,,0.01,,2013-08-21 02:12:00,
2013-08-20 22:22:00,69.0,66.0,30.12,SSW,198,0.0,0.0,91,0.00,,,0.01,,2013-08-21 02:22:00,
2013-08-20 22:42:00,69.0,66.0,30.12,SSW,198,0.0,0.0,91,0.00,,,0.01,,2013-08-21 02:42:00,
2013-08-20 22:52:00,69.0,66.0,30.12,SSW,198,0.0,0.0,91,0.00,,,0.01,,2013-08-21 02:52:00,
2013-08-20 23:12:00,68.0,66.0,30.13,SSW,198,0.0,0.0,92,0.00,,,0.01,,2013-08-21 03:12:00,
2013-08-20 23:23:00,68.0,66.0,30.13,SSW,198,0.0,0.0,92,0.00,,,0.01,,2013-08-21 03:23:00,
2013-08-20 23:35:00,68.0,66.0,30.13,SSW,198,0.0,0.0,92,0.00,,,0.01,,2013-08-21 03:35:00,
2013-08-20 23:55:00,68.0,66.0,30.14,SSW,198,0.0,0.0,92,0.00,,,0.01,,2013-08-21 03:55:00,